Terminal Aerodrome Forecast
Issued by NWS Wilmington, NC

Home | Current Version | Previous Version | Text Only | Print | Product List | Glossary On
Versions: 1 2 3 4 5 6 7 8 9 10 11 12 13 14 15 16 17 18 19 20 21 22 23
000
FTUS42 KILM 230525
TAFLBT
TAF
KLBT 230525Z 2306/2406 21003KT P6SM SKC
     FM230700 00000KT 2SM BR SCT003
      TEMPO 2309/2313 1/2SM FG VV002
     FM231500 21004KT P6SM SCT007 BKN015
     FM231700 20007KT P6SM BKN030 BKN050=

USA.gov is the U.S. government's official web portal to all federal, state and local government web resources and services.